createdAt,value
2023-02-26T00:01:33.683Z,4.70
2023-02-26T00:04:07.712Z,4.40
2023-02-26T00:06:45.749Z,4.40
2023-02-26T00:09:14.615Z,4.40
2023-02-26T00:11:41.410Z,4.90
2023-02-26T00:14:15.562Z,4.40
2023-02-26T00:16:43.288Z,4.50
2023-02-26T00:19:12.690Z,4.30
2023-02-26T00:21:42.217Z,4.30
2023-02-26T00:24:08.954Z,4.40
2023-02-26T00:26:36.116Z,4.30
2023-02-26T00:29:04.350Z,4.30
2023-02-26T00:31:35.942Z,4.20
2023-02-26T00:34:05.430Z,4.20
2023-02-26T00:36:57.875Z,4.40
2023-02-26T00:39:39.562Z,4.60
2023-02-26T00:42:08.829Z,4.20
2023-02-26T00:44:35.903Z,3.80
2023-02-26T00:47:20.987Z,4.10
2023-02-26T00:49:55.917Z,4.10
2023-02-26T00:52:46.067Z,4.20
2023-02-26T00:55:12.997Z,4.00
2023-02-26T00:57:39.701Z,4.00
2023-02-26T01:00:11.971Z,4.00
2023-02-26T01:02:41.702Z,3.90
2023-02-26T01:05:11.466Z,3.90
2023-02-26T01:08:00.511Z,3.90
2023-02-26T01:10:29.831Z,3.80
2023-02-26T01:12:59.250Z,3.80
2023-02-26T01:15:26.370Z,3.80
2023-02-26T01:18:09.913Z,3.90
2023-02-26T01:20:46.305Z,3.70
2023-02-26T01:23:17.731Z,3.90
2023-02-26T01:26:06.554Z,3.80
2023-02-26T01:28:36.577Z,3.90
2023-02-26T01:31:08.061Z,3.80
2023-02-26T01:33:50.135Z,4.00
2023-02-26T01:36:22.523Z,3.80
2023-02-26T01:39:14.227Z,3.90
2023-02-26T01:41:47.875Z,3.60
2023-02-26T01:44:20.801Z,3.80
2023-02-26T01:47:14.511Z,3.80
2023-02-26T01:49:41.889Z,3.70
2023-02-26T01:52:34.560Z,4.00
2023-02-26T01:55:05.668Z,3.70
2023-02-26T01:57:35.100Z,3.70
2023-02-26T02:00:02.036Z,3.70
2023-02-26T02:02:29.496Z,3.70
2023-02-26T02:04:56.630Z,3.70
2023-02-26T02:07:23.318Z,3.70
2023-02-26T02:12:35.203Z,3.70
2023-02-26T02:15:09.004Z,3.70
2023-02-26T02:17:56.724Z,3.60
2023-02-26T02:20:26.417Z,3.70
2023-02-26T02:23:20.061Z,3.50
2023-02-26T02:26:21.291Z,3.80
2023-02-26T02:29:06.816Z,3.70
2023-02-26T02:31:44.068Z,3.50
2023-02-26T02:34:21.614Z,3.60
2023-02-26T02:36:54.118Z,3.50
2023-02-26T02:39:31.931Z,3.50
2023-02-26T02:42:04.326Z,3.40
2023-02-26T02:44:39.975Z,3.50
2023-02-26T02:47:09.253Z,3.60
2023-02-26T02:49:49.480Z,3.50
2023-02-26T02:52:31.454Z,3.50
2023-02-26T02:55:16.389Z,3.40
2023-02-26T02:58:06.612Z,2.70
2023-02-26T03:00:37.715Z,3.30
2023-02-26T03:03:21.913Z,3.30
2023-02-26T03:05:48.704Z,3.20
2023-02-26T03:08:18.643Z,3.20
2023-02-26T03:10:47.732Z,3.10
2023-02-26T03:13:21.733Z,3.20
2023-02-26T03:15:48.340Z,2.80
2023-02-26T03:18:21.868Z,3.00
2023-02-26T03:21:21.670Z,2.90
2023-02-26T03:24:05.832Z,3.00
2023-02-26T03:27:13.500Z,2.90
2023-02-26T03:30:07.664Z,2.90
2023-02-26T03:33:00.616Z,2.80
2023-02-26T03:35:44.294Z,2.80
2023-02-26T03:38:18.562Z,2.70
2023-02-26T03:40:54.234Z,2.70
2023-02-26T03:43:28.907Z,2.60
2023-02-26T03:46:01.011Z,2.60
2023-02-26T03:48:30.356Z,2.50
2023-02-26T03:51:05.937Z,2.50
2023-02-26T03:53:39.348Z,2.60
2023-02-26T03:56:11.521Z,2.60
2023-02-26T03:58:38.333Z,2.40
2023-02-26T04:01:14.316Z,2.40
2023-02-26T04:03:45.826Z,2.40
2023-02-26T04:06:13.509Z,2.40
2023-02-26T04:08:43.582Z,2.40
2023-02-26T04:11:17.163Z,2.40
2023-02-26T04:13:46.192Z,2.30
2023-02-26T04:16:14.151Z,2.30
2023-02-26T04:18:43.133Z,2.20
2023-02-26T04:21:18.073Z,2.30
2023-02-26T04:23:44.739Z,2.30
2023-02-26T04:26:13.165Z,1.70
2023-02-26T04:28:42.626Z,2.30
2023-02-26T04:31:11.845Z,2.30
2023-02-26T04:33:38.645Z,2.30
2023-02-26T04:36:10.923Z,2.30
2023-02-26T04:38:37.670Z,2.30
2023-02-26T04:41:06.821Z,2.20
2023-02-26T04:43:38.236Z,2.30
2023-02-26T04:46:05.145Z,2.20
2023-02-26T04:48:34.209Z,2.20
2023-02-26T04:51:00.929Z,2.10
2023-02-26T04:53:32.534Z,2.10
2023-02-26T04:55:59.363Z,2.00
2023-02-26T04:58:28.327Z,2.10
2023-02-26T05:00:57.196Z,2.00
2023-02-26T05:03:23.910Z,2.00
2023-02-26T05:05:51.456Z,2.30
2023-02-26T05:08:18.152Z,2.00
2023-02-26T05:10:50.995Z,1.70
2023-02-26T05:13:22.571Z,1.90
2023-02-26T05:15:49.278Z,1.90
2023-02-26T05:18:18.379Z,1.80
2023-02-26T05:20:45.030Z,1.80
2023-02-26T05:23:11.661Z,1.80
2023-02-26T05:25:40.576Z,1.70
2023-02-26T05:28:09.430Z,1.70
2023-02-26T05:30:38.377Z,1.70
2023-02-26T05:33:05.078Z,1.70
2023-02-26T05:35:31.744Z,1.60
2023-02-26T05:38:00.658Z,1.60
2023-02-26T05:40:27.384Z,1.40
2023-02-26T05:42:54.159Z,1.60
2023-02-26T05:45:20.856Z,1.50
2023-02-26T05:47:47.560Z,1.50
2023-02-26T05:50:17.021Z,1.50
2023-02-26T05:52:43.757Z,1.50
2023-02-26T05:55:10.737Z,1.50
2023-02-26T05:57:37.509Z,2.30
2023-02-26T06:00:08.994Z,1.40
2023-02-26T06:02:35.704Z,1.40
2023-02-26T06:05:02.465Z,1.40
2023-02-26T06:07:29.156Z,1.40
2023-02-26T06:09:55.799Z,1.40
2023-02-26T06:12:27.277Z,1.20
2023-02-26T06:14:53.975Z,1.20
2023-02-26T06:17:23.111Z,1.20
2023-02-26T06:19:49.877Z,1.20
2023-02-26T06:22:16.625Z,1.20
2023-02-26T06:24:43.436Z,1.20
2023-02-26T06:27:10.116Z,1.20
2023-02-26T06:29:39.221Z,1.20
2023-02-26T06:32:06.764Z,1.20
2023-02-26T06:34:36.488Z,1.20
2023-02-26T06:37:05.766Z,1.30
2023-02-26T06:39:34.950Z,1.20
2023-02-26T06:42:03.869Z,1.20
2023-02-26T06:44:33.194Z,1.20
2023-02-26T06:47:02.498Z,1.20
2023-02-26T06:49:31.357Z,1.20
2023-02-26T06:52:00.286Z,1.20
2023-02-26T06:54:26.913Z,1.20
2023-02-26T06:56:57.680Z,1.20
2023-02-26T06:59:25.012Z,1.20
2023-02-26T07:01:51.704Z,1.30
2023-02-26T07:04:20.884Z,1.30
2023-02-26T07:06:47.998Z,1.30
2023-02-26T07:09:17.162Z,1.40
2023-02-26T07:11:46.422Z,1.40
2023-02-26T07:14:13.181Z,1.50
2023-02-26T07:16:39.968Z,1.60
2023-02-26T07:19:06.676Z,1.70
2023-02-26T07:21:33.350Z,1.80
2023-02-26T07:24:02.486Z,1.90
2023-02-26T07:26:31.381Z,2.00
2023-02-26T07:28:58.086Z,2.10
2023-02-26T07:31:29.523Z,2.20
2023-02-26T07:33:56.254Z,2.40
2023-02-26T07:36:22.918Z,2.50
2023-02-26T07:38:49.805Z,2.70
2023-02-26T07:41:18.697Z,2.70
2023-02-26T07:43:47.636Z,2.90
2023-02-26T07:46:17.196Z,3.00
2023-02-26T07:48:44.018Z,3.10
2023-02-26T07:51:11.138Z,7.70
2023-02-26T07:53:37.854Z,3.20
2023-02-26T07:56:07.040Z,3.30
2023-02-26T07:58:38.289Z,3.30
2023-02-26T08:01:05.138Z,3.30
2023-02-26T08:03:32.232Z,3.40
2023-02-26T08:06:00.304Z,3.30
2023-02-26T08:08:29.789Z,3.50
2023-02-26T08:10:58.778Z,3.60
2023-02-26T08:13:27.838Z,3.60
2023-02-26T08:15:54.605Z,3.40
2023-02-26T08:18:24.156Z,3.70
2023-02-26T08:20:52.248Z,3.80
2023-02-26T08:23:19.311Z,3.80
2023-02-26T08:25:49.075Z,3.80
2023-02-26T08:28:16.060Z,3.90
2023-02-26T08:30:44.880Z,3.80
2023-02-26T08:33:14.728Z,3.90
2023-02-26T08:38:08.394Z,3.80
2023-02-26T08:40:35.019Z,3.80
2023-02-26T08:43:03.136Z,3.80
2023-02-26T08:45:32.761Z,3.80
2023-02-26T08:47:59.937Z,3.80
2023-02-26T08:50:26.928Z,3.90
2023-02-26T08:52:55.834Z,3.90
2023-02-26T08:55:23.011Z,4.00
2023-02-26T08:57:54.160Z,4.10
2023-02-26T09:00:23.680Z,4.20
2023-02-26T09:02:50.569Z,4.20
2023-02-26T09:05:18.239Z,4.70
2023-02-26T09:07:45.651Z,4.30
2023-02-26T09:10:13.940Z,4.40
2023-02-26T09:12:44.091Z,4.40
2023-02-26T09:15:11.287Z,4.40
2023-02-26T09:17:38.956Z,4.60
2023-02-26T09:20:06.916Z,4.60
2023-02-26T09:22:33.619Z,4.80
2023-02-26T09:25:06.117Z,5.00
2023-02-26T09:27:33.571Z,4.80
2023-02-26T09:30:00.335Z,4.80
2023-02-26T09:32:27.189Z,4.80
2023-02-26T09:34:53.993Z,4.90
2023-02-26T09:37:20.639Z,4.60
2023-02-26T09:39:49.531Z,4.80
2023-02-26T09:42:30.669Z,4.80
2023-02-26T09:45:00.107Z,4.80
2023-02-26T09:47:46.615Z,5.10
2023-02-26T09:50:18.532Z,4.80
2023-02-26T09:53:02.820Z,4.90
2023-02-26T09:55:45.521Z,4.90
2023-02-26T09:58:16.878Z,4.90
2023-02-26T10:01:05.684Z,4.90
2023-02-26T10:03:48.604Z,4.90
2023-02-26T10:06:56.745Z,4.90
2023-02-26T10:09:58.894Z,4.90
2023-02-26T10:12:28.178Z,4.70
2023-02-26T10:15:15.540Z,4.60
2023-02-26T10:18:01.202Z,4.70
2023-02-26T10:20:39.195Z,4.60
2023-02-26T10:23:15.047Z,4.60
2023-02-26T10:25:51.613Z,4.60
2023-02-26T10:28:37.351Z,4.50
2023-02-26T10:31:21.866Z,4.50
2023-02-26T10:34:07.325Z,4.50
2023-02-26T10:37:17.454Z,4.40
2023-02-26T10:39:48.915Z,4.40
2023-02-26T10:42:41.975Z,4.40
2023-02-26T10:45:31.170Z,4.40
2023-02-26T10:48:19.555Z,4.40
2023-02-26T10:50:51.612Z,4.30
2023-02-26T10:53:22.136Z,4.40
2023-02-26T10:55:59.849Z,4.30
2023-02-26T10:58:26.916Z,4.10
2023-02-26T11:00:55.281Z,4.30
2023-02-26T11:03:46.029Z,4.30
2023-02-26T11:06:43.481Z,4.40
2023-02-26T11:09:39.395Z,4.40
2023-02-26T11:12:14.874Z,4.50
2023-02-26T11:14:48.548Z,4.90
2023-02-26T11:17:19.388Z,4.50
2023-02-26T11:20:15.100Z,4.40
2023-02-26T11:22:52.543Z,4.60
2023-02-26T11:25:23.990Z,4.60
2023-02-26T11:27:58.390Z,4.80
2023-02-26T11:30:27.908Z,4.80
2023-02-26T11:33:01.274Z,4.70
2023-02-26T11:35:28.178Z,5.00
2023-02-26T11:38:02.190Z,5.10
2023-02-26T11:40:47.881Z,5.20
2023-02-26T11:43:21.318Z,5.20
2023-02-26T11:45:56.209Z,5.30
2023-02-26T11:48:27.903Z,5.20
2023-02-26T11:51:03.306Z,5.20
2023-02-26T11:53:29.944Z,5.20
2023-02-26T11:56:12.309Z,5.20
2023-02-26T11:58:43.612Z,5.20
2023-02-26T12:01:13.360Z,5.30
2023-02-26T12:03:46.292Z,5.30
2023-02-26T12:06:26.608Z,5.30
2023-02-26T12:08:54.068Z,5.40
2023-02-26T12:11:36.555Z,5.40
2023-02-26T12:14:22.094Z,5.40
2023-02-26T12:17:07.120Z,5.30
2023-02-26T12:19:59.401Z,5.30
2023-02-26T12:22:40.409Z,5.30
2023-02-26T12:25:50.510Z,5.30
2023-02-26T12:28:43.741Z,5.40
2023-02-26T12:32:01.970Z,5.30
2023-02-26T12:34:43.795Z,5.30
2023-02-26T12:37:31.573Z,5.30
2023-02-26T12:40:32.027Z,5.30
2023-02-26T12:43:04.039Z,5.20
2023-02-26T12:45:47.283Z,5.10
2023-02-26T12:48:37.608Z,5.20
2023-02-26T12:51:25.762Z,5.10
2023-02-26T12:54:04.400Z,5.00
2023-02-26T12:57:00.449Z,5.10
2023-02-26T12:59:46.645Z,5.10
2023-02-26T13:02:32.227Z,5.20
2023-02-26T13:05:13.913Z,5.20
2023-02-26T13:07:40.571Z,5.20
2023-02-26T13:10:28.146Z,5.10
2023-02-26T13:13:40.560Z,5.10
2023-02-26T13:16:42.645Z,5.00
2023-02-26T13:19:24.079Z,4.90
2023-02-26T13:21:58.957Z,5.00
2023-02-26T13:24:41.111Z,4.80
2023-02-26T13:27:09.889Z,4.90
2023-02-26T13:29:44.198Z,5.10
2023-02-26T13:32:27.050Z,5.30
2023-02-26T13:34:58.655Z,5.50
2023-02-26T13:37:30.394Z,5.40
2023-02-26T13:40:28.682Z,5.40
2023-02-26T13:43:10.989Z,5.50
2023-02-26T13:46:12.961Z,6.00
2023-02-26T13:49:20.933Z,5.40
2023-02-26T13:51:53.877Z,5.60
2023-02-26T13:54:20.510Z,5.20
2023-02-26T13:56:54.176Z,5.30
2023-02-26T13:59:44.154Z,5.30
2023-02-26T14:02:19.876Z,5.30
2023-02-26T14:04:57.753Z,5.30
2023-02-26T14:07:54.039Z,5.30
2023-02-26T14:10:57.394Z,5.40
2023-02-26T14:13:41.036Z,5.50
2023-02-26T14:16:20.856Z,5.60
2023-02-26T14:18:50.289Z,5.70
2023-02-26T14:21:28.939Z,5.60
2023-02-26T14:24:02.271Z,5.70
2023-02-26T14:26:36.769Z,5.70
2023-02-26T14:29:08.577Z,5.70
2023-02-26T14:31:54.985Z,5.80
2023-02-26T14:34:29.898Z,5.80
2023-02-26T14:37:06.917Z,5.70
2023-02-26T14:39:43.845Z,5.70
2023-02-26T14:42:25.125Z,5.90
2023-02-26T14:45:06.081Z,5.90
2023-02-26T14:47:32.786Z,5.90
2023-02-26T14:50:03.178Z,6.00
2023-02-26T14:52:59.031Z,6.00
2023-02-26T14:55:57.129Z,6.10
2023-02-26T14:58:41.310Z,6.00
2023-02-26T15:01:29.466Z,6.00
2023-02-26T15:04:15.021Z,6.00
2023-02-26T15:07:03.395Z,6.00
2023-02-26T15:09:41.624Z,6.00
2023-02-26T15:12:37.144Z,5.80
2023-02-26T15:15:09.946Z,5.80
2023-02-26T15:18:07.666Z,5.70
2023-02-26T15:20:49.787Z,5.60
2023-02-26T15:23:16.398Z,5.80
2023-02-26T15:25:45.076Z,5.50
2023-02-26T15:28:26.264Z,5.60
2023-02-26T15:30:54.960Z,5.60
2023-02-26T15:33:25.260Z,5.40
2023-02-26T15:35:53.522Z,5.50
2023-02-26T15:38:20.799Z,5.50
2023-02-26T15:40:50.738Z,5.40
2023-02-26T15:43:25.043Z,5.40
2023-02-26T15:45:55.592Z,5.60
2023-02-26T15:48:34.229Z,5.30
2023-02-26T15:51:03.761Z,5.30
2023-02-26T15:53:52.975Z,5.30
2023-02-26T15:56:30.159Z,4.90
2023-02-26T15:59:02.942Z,5.30
2023-02-26T16:01:33.572Z,5.20
2023-02-26T16:04:07.169Z,5.20
2023-02-26T16:06:40.173Z,5.00
2023-02-26T16:09:09.135Z,5.00
2023-02-26T16:11:39.501Z,5.00
2023-02-26T16:14:15.725Z,4.70
2023-02-26T16:16:46.019Z,4.80
2023-02-26T16:19:18.903Z,4.70
2023-02-26T16:21:46.238Z,4.70
2023-02-26T16:24:18.800Z,4.70
2023-02-26T16:26:52.685Z,4.70
2023-02-26T16:29:26.889Z,4.80
2023-02-26T16:32:02.928Z,4.70
2023-02-26T16:34:48.148Z,4.50
2023-02-26T16:37:35.974Z,4.40
2023-02-26T16:40:17.892Z,4.40
2023-02-26T16:42:50.614Z,4.50
2023-02-26T16:45:49.158Z,4.30
2023-02-26T16:48:31.870Z,4.30
2023-02-26T16:51:13.962Z,4.30
2023-02-26T16:53:48.345Z,4.40
2023-02-26T16:56:20.310Z,4.10
2023-02-26T16:58:54.650Z,4.10
2023-02-26T17:01:22.764Z,3.90
2023-02-26T17:04:00.221Z,4.00
2023-02-26T17:06:31.182Z,4.40
2023-02-26T17:09:00.222Z,4.00
2023-02-26T17:11:35.572Z,4.00
2023-02-26T17:14:19.269Z,4.00
2023-02-26T17:16:49.472Z,4.00
2023-02-26T17:19:17.181Z,3.90
2023-02-26T17:21:51.737Z,4.10
2023-02-26T17:24:29.128Z,3.80
2023-02-26T17:26:56.311Z,3.80
2023-02-26T17:29:31.213Z,4.10
2023-02-26T17:32:00.736Z,3.80
2023-02-26T17:34:27.562Z,3.80
2023-02-26T17:36:56.148Z,3.70
2023-02-26T17:41:52.649Z,3.70
2023-02-26T17:44:19.725Z,3.70
2023-02-26T17:46:46.584Z,3.60
2023-02-26T17:49:16.368Z,3.80
2023-02-26T17:51:45.561Z,3.60
2023-02-26T17:54:14.371Z,3.60
2023-02-26T17:56:43.441Z,3.60
2023-02-26T17:59:13.020Z,3.50
2023-02-26T18:01:42.397Z,3.40
2023-02-26T18:04:09.567Z,3.50
2023-02-26T18:06:40.270Z,3.50
2023-02-26T18:09:07.380Z,3.40
2023-02-26T18:11:36.600Z,3.40
2023-02-26T18:14:03.354Z,3.40
2023-02-26T18:16:40.030Z,3.30
2023-02-26T18:19:14.825Z,3.30
2023-02-26T18:21:41.731Z,3.30
2023-02-26T18:24:11.285Z,3.50
2023-02-26T18:29:07.621Z,3.20
2023-02-26T18:31:35.576Z,3.20
2023-02-26T18:34:03.522Z,3.20
2023-02-26T18:36:37.763Z,3.20
2023-02-26T18:39:07.538Z,3.20
2023-02-26T18:41:35.381Z,3.10
2023-02-26T18:44:02.232Z,3.00
2023-02-26T18:46:34.727Z,3.00
2023-02-26T18:49:01.489Z,2.90
2023-02-26T18:51:30.496Z,3.00
2023-02-26T18:53:59.499Z,2.90
2023-02-26T18:56:26.185Z,2.90
2023-02-26T18:58:52.866Z,2.60
2023-02-26T19:01:19.828Z,2.80
2023-02-26T19:03:49.313Z,2.80
2023-02-26T19:06:16.101Z,2.70
2023-02-26T19:08:49.647Z,2.70
2023-02-26T19:11:16.397Z,3.40
2023-02-26T19:13:43.040Z,2.70
2023-02-26T19:16:09.823Z,2.70
2023-02-26T19:18:36.486Z,2.70
2023-02-26T19:21:04.759Z,2.70
2023-02-26T19:23:31.497Z,2.60
2023-02-26T19:25:58.238Z,2.60
2023-02-26T19:28:25.363Z,2.60
2023-02-26T19:30:55.468Z,2.50
2023-02-26T19:33:24.517Z,2.60
2023-02-26T19:35:52.110Z,2.50
2023-02-26T19:38:21.521Z,2.50
2023-02-26T19:40:50.405Z,2.90
2023-02-26T19:43:17.152Z,2.50
2023-02-26T19:45:44.068Z,2.40
2023-02-26T19:48:10.767Z,2.50
2023-02-26T19:50:39.678Z,2.60
2023-02-26T19:53:06.534Z,2.60
2023-02-26T19:55:33.215Z,2.60
2023-02-26T19:58:04.848Z,2.60
2023-02-26T20:00:34.061Z,2.70
2023-02-26T20:03:03.211Z,2.60
2023-02-26T20:05:29.861Z,2.60
2023-02-26T20:07:57.984Z,2.60
2023-02-26T20:10:26.472Z,2.60
2023-02-26T20:15:20.782Z,2.60
2023-02-26T20:17:47.558Z,2.60
2023-02-26T20:20:14.627Z,2.60
2023-02-26T20:22:41.355Z,2.60
2023-02-26T20:25:09.042Z,2.60
2023-02-26T20:27:36.497Z,2.60
2023-02-26T20:30:05.134Z,2.60
2023-02-26T20:32:33.310Z,2.60
2023-02-26T20:35:00.109Z,2.50
2023-02-26T20:39:56.337Z,2.50
2023-02-26T20:42:23.267Z,2.60
2023-02-26T20:44:50.276Z,3.00
2023-02-26T20:47:21.633Z,2.70
2023-02-26T20:49:48.617Z,2.60
2023-02-26T20:52:15.342Z,2.50
2023-02-26T20:54:45.095Z,2.50
2023-02-26T20:57:12.340Z,2.40
2023-02-26T20:59:43.563Z,2.40
2023-02-26T21:02:15.369Z,2.30
2023-02-26T21:04:44.456Z,2.30
2023-02-26T21:07:21.541Z,2.30
2023-02-26T21:09:49.872Z,2.20
2023-02-26T21:12:17.133Z,2.20
2023-02-26T21:14:44.180Z,2.10
2023-02-26T21:17:11.232Z,2.10
2023-02-26T21:19:40.270Z,2.10
2023-02-26T21:22:09.159Z,2.00
2023-02-26T21:24:35.984Z,2.20
2023-02-26T21:27:02.921Z,2.00
2023-02-26T21:29:29.680Z,1.90
2023-02-26T21:31:58.604Z,1.90
2023-02-26T21:34:34.107Z,1.80
2023-02-26T21:37:12.304Z,2.10
2023-02-26T21:39:39.422Z,1.80
2023-02-26T21:42:10.405Z,1.80
2023-02-26T21:44:39.597Z,1.80
2023-02-26T21:47:06.862Z,1.80
2023-02-26T21:49:33.664Z,1.70
2023-02-26T21:52:05.214Z,1.80
2023-02-26T21:54:34.307Z,1.70
2023-02-26T21:57:05.757Z,1.70
2023-02-26T21:59:35.006Z,1.80
2023-02-26T22:02:02.266Z,1.70
2023-02-26T22:04:33.990Z,1.70
2023-02-26T22:07:00.815Z,1.80
2023-02-26T22:09:29.964Z,1.70
2023-02-26T22:11:56.688Z,1.80
2023-02-26T22:14:23.319Z,1.80
2023-02-26T22:16:54.765Z,1.80
2023-02-26T22:19:23.711Z,1.70
2023-02-26T22:21:50.406Z,1.70
2023-02-26T22:24:19.603Z,1.70
2023-02-26T22:26:48.850Z,1.60
2023-02-26T22:29:17.230Z,1.60
2023-02-26T22:31:47.260Z,1.50
2023-02-26T22:34:14.256Z,1.50
2023-02-26T22:36:41.199Z,1.50
2023-02-26T22:39:08.030Z,1.50
2023-02-26T22:41:35.726Z,1.50
2023-02-26T22:44:02.897Z,1.60
2023-02-26T22:46:32.252Z,1.40
2023-02-26T22:48:59.945Z,1.50
2023-02-26T22:51:29.416Z,1.40
2023-02-26T22:53:56.227Z,1.30
2023-02-26T22:56:22.963Z,1.40
2023-02-26T22:58:50.520Z,1.40
2023-02-26T23:03:45.030Z,1.30
2023-02-26T23:06:14.508Z,1.20
2023-02-26T23:08:41.489Z,1.90
2023-02-26T23:11:08.274Z,1.30
2023-02-26T23:13:38.244Z,1.20
2023-02-26T23:16:10.917Z,1.20
2023-02-26T23:18:41.840Z,1.20
2023-02-26T23:21:08.524Z,1.20
2023-02-26T23:23:35.304Z,1.20
2023-02-26T23:26:02.393Z,1.20
2023-02-26T23:30:58.345Z,1.10
2023-02-26T23:33:25.941Z,1.30
2023-02-26T23:35:54.917Z,1.10
2023-02-26T23:40:51.049Z,1.10
2023-02-26T23:45:47.143Z,1.10
2023-02-26T23:48:13.827Z,1.00
2023-02-26T23:50:42.630Z,1.00
2023-02-26T23:53:09.437Z,1.00
2023-02-26T23:55:38.601Z,1.00
2023-02-26T23:58:07.827Z,1.00
